Time;durP1;ratioP1;P1;durP2;ratioP2;P2;SDS_P1;SDS_P2;PMS_P1;PMS_P2;Temp;Humidity;BMP_temperature;BMP_pressure;BME280_temperature;BME280_humidity;BME280_pressure;Samples;Min_cycle;Max_cycle;Signal;HPM_P1;HPM_P2
2020/12/06 05:02:25;;;;;;;14.38;8.80;;;3.40;99.90;;;;;;5391518;23;90577;-82
2020/12/06 05:04:59;;;;;;;13.70;10.03;;;3.30;99.90;;;;;;4913819;28;88435;-82
2020/12/06 05:07:27;;;;;;;14.77;8.52;;;3.40;99.90;;;;;;4919261;28;86884;-82
2020/12/06 05:09:52;;;;;;;16.45;9.10;;;3.40;99.90;;;;;;4932102;28;87132;-83
2020/12/06 05:12:19;;;;;;;15.48;9.63;;;3.30;99.90;;;;;;4927305;28;87272;-84
2020/12/06 05:14:45;;;;;;;13.43;9.18;;;;;;;;;;4921615;28;87409;-83
2020/12/06 05:17:12;;;;;;;15.98;10.05;;;3.30;99.90;;;;;;4922060;28;87259;-83
2020/12/06 05:19:37;;;;;;;16.55;9.07;;;3.20;99.90;;;;;;4927366;28;86455;-84
2020/12/06 05:22:03;;;;;;;14.90;10.45;;;3.20;99.90;;;;;;4928149;28;87153;-83
2020/12/06 05:24:30;;;;;;;13.80;9.77;;;3.30;99.90;;;;;;4915979;28;88574;-84
2020/12/06 05:26:56;;;;;;;17.20;10.70;;;3.30;99.90;;;;;;4927128;28;87976;-83
2020/12/06 05:29:21;;;;;;;16.80;9.30;;;3.20;99.90;;;;;;4930176;28;86883;-83
2020/12/06 05:31:48;;;;;;;14.23;9.88;;;3.20;99.90;;;;;;4929313;28;86894;-83
2020/12/06 05:34:14;;;;;;;14.90;9.88;;;3.00;99.90;;;;;;4930617;28;87082;-84
2020/12/06 05:36:43;;;;;;;14.13;8.27;;;3.20;99.90;;;;;;4936050;28;86569;-84
2020/12/06 05:39:09;;;;;;;15.02;8.63;;;3.30;99.90;;;;;;4930361;28;86917;-83
2020/12/06 05:41:35;;;;;;;15.27;9.43;;;3.50;99.90;;;;;;4934673;28;86716;-84
2020/12/06 05:44:04;;;;;;;13.23;8.05;;;3.40;99.90;;;;;;4932471;28;86819;-83
2020/12/06 05:46:35;;;;;;;11.88;9.00;;;3.50;99.90;;;;;;4918542;28;87085;-84
2020/12/06 05:49:05;;;;;;;13.27;8.80;;;3.50;99.90;;;;;;4930263;28;86959;-83
2020/12/06 05:51:32;;;;;;;12.43;8.93;;;3.50;99.90;;;;;;4929860;28;87846;-84
2020/12/06 05:53:58;;;;;;;14.60;9.85;;;3.60;99.90;;;;;;4931235;28;87341;-83
2020/12/06 05:56:24;;;;;;;13.90;8.30;;;3.60;99.90;;;;;;4941478;28;86873;-83
2020/12/06 05:58:51;;;;;;;12.73;8.95;;;3.70;99.90;;;;;;4930723;28;86959;-84
2020/12/06 06:01:21;;;;;;;11.70;8.35;;;3.80;99.90;;;;;;4928264;28;86916;-83
2020/12/06 06:03:52;;;;;;;13.13;8.55;;;3.80;99.90;;;;;;4910940;28;87922;-83
2020/12/06 06:06:25;;;;;;;15.90;10.10;;;3.80;99.90;;;;;;4905722;28;87029;-83
2020/12/06 06:08:53;;;;;;;13.45;8.68;;;3.70;99.90;;;;;;4908038;28;86174;-83
2020/12/06 06:11:29;;;;;;;12.75;9.13;;;3.80;99.90;;;;;;4908469;28;86994;-84
2020/12/06 06:14:11;;;;;;;13.38;8.52;;;3.80;99.90;;;;;;4906658;28;87829;-84
2020/12/06 06:16:36;;;;;;;13.23;8.70;;;3.80;99.90;;;;;;4908634;28;87661;-83
2020/12/06 06:19:06;;;;;;;11.98;8.93;;;3.80;99.90;;;;;;4909498;28;87008;-83
2020/12/06 06:21:40;;;;;;;14.77;9.38;;;3.90;99.90;;;;;;4903504;28;87378;-84
2020/12/06 06:24:08;;;;;;;13.68;8.60;;;4.00;99.90;;;;;;4907029;28;87082;-84
2020/12/06 06:26:37;;;;;;;12.02;8.68;;;4.00;99.90;;;;;;4905402;28;86783;-83
2020/12/06 06:29:11;;;;;;;15.23;9.02;;;4.00;99.90;;;;;;4908079;28;86615;-83
2020/12/06 06:31:38;;;;;;;16.58;10.63;;;3.90;99.90;;;;;;4908309;28;86779;-83
2020/12/06 06:34:06;;;;;;;15.68;10.20;;;3.80;99.90;;;;;;4905078;28;87861;-82
2020/12/06 06:36:34;;;;;;;14.15;9.77;;;3.70;99.90;;;;;;4902339;28;86909;-83
2020/12/06 06:39:02;;;;;;;13.13;8.13;;;3.70;99.90;;;;;;4902827;28;87008;-83
2020/12/06 06:41:28;;;;;;;13.55;9.80;;;3.70;99.90;;;;;;4906312;28;87790;-83
2020/12/06 06:44:02;;;;;;;13.65;8.95;;;3.60;99.90;;;;;;4908737;28;88296;-82
2020/12/06 06:46:36;;;;;;;12.75;7.95;;;3.70;99.90;;;;;;4905149;28;87558;-83
2020/12/06 06:49:09;;;;;;;12.63;9.93;;;3.70;99.90;;;;;;4906396;28;86813;-82
2020/12/06 06:51:36;;;;;;;13.32;9.38;;;3.70;99.90;;;;;;4899177;28;87619;-81
2020/12/06 06:54:05;;;;;;;14.52;9.98;;;3.70;99.90;;;;;;4911108;28;86855;-85
2020/12/06 06:56:36;;;;;;;18.00;11.50;;;3.60;99.90;;;;;;4909303;28;86813;-85
2020/12/06 06:59:03;;;;;;;13.65;9.63;;;3.60;99.90;;;;;;4911148;28;85984;-86
2020/12/06 07:01:29;;;;;;;15.82;10.32;;;3.70;99.90;;;;;;4909360;28;87035;-85
2020/12/06 07:03:55;;;;;;;17.60;10.50;;;3.60;99.90;;;;;;4928848;28;87027;-83
2020/12/06 07:06:43;;;;;;;16.02;10.45;;;3.60;99.90;;;;;;4926785;28;88077;-81
2020/12/06 07:09:09;;;;;;;19.45;11.73;;;3.60;99.90;;;;;;4929808;28;87116;-82
2020/12/06 07:11:38;;;;;;;19.20;11.10;;;3.60;99.90;;;;;;4926067;28;88521;-84
2020/12/06 07:14:04;;;;;;;16.23;10.80;;;3.70;99.90;;;;;;4926585;28;88690;-84
2020/12/06 07:16:30;;;;;;;14.32;10.25;;;3.60;99.90;;;;;;4925869;28;87160;-82
2020/12/06 07:18:55;;;;;;;17.90;10.38;;;3.60;99.90;;;;;;4926719;28;86916;-83
2020/12/06 07:21:21;;;;;;;14.85;9.35;;;3.60;99.90;;;;;;4926570;28;87182;-83
2020/12/06 07:23:47;;;;;;;13.75;9.60;;;3.70;99.90;;;;;;4929745;28;87678;-84
2020/12/06 07:26:13;;;;;;;16.27;11.00;;;3.70;99.90;;;;;;4928359;28;86306;-85
2020/12/06 07:28:38;;;;;;;14.48;9.63;;;3.70;99.90;;;;;;4928273;28;86955;-82
2020/12/06 07:31:04;;;;;;;14.32;9.73;;;3.80;99.90;;;;;;4929296;28;89020;-85
2020/12/06 07:33:30;;;;;;;14.23;9.65;;;3.80;99.90;;;;;;4928085;28;87386;-83
2020/12/06 07:35:56;;;;;;;16.60;9.68;;;3.80;99.90;;;;;;4915004;28;87089;-83
2020/12/06 07:38:22;;;;;;;12.80;8.90;;;3.80;99.90;;;;;;4916817;28;87308;-83
2020/12/06 07:40:47;;;;;;;13.57;9.25;;;3.80;99.90;;;;;;4922998;28;87307;-84
2020/12/06 07:43:14;;;;;;;14.43;8.93;;;3.90;99.90;;;;;;4927742;28;88401;-84
2020/12/06 07:45:40;;;;;;;15.63;9.70;;;3.90;99.90;;;;;;4926619;28;86653;-83
2020/12/06 07:48:06;;;;;;;11.80;8.07;;;3.90;99.90;;;;;;4922755;28;86341;-83
2020/12/06 07:50:32;;;;;;;11.80;7.63;;;4.00;99.90;;;;;;4926760;28;86776;-82
2020/12/06 07:53:02;;;;;;;11.80;7.95;;;4.00;99.90;;;;;;4924165;28;87027;-83
2020/12/06 07:55:28;;;;;;;10.53;7.83;;;4.00;99.90;;;;;;4927861;28;87756;-83
2020/12/06 07:57:57;;;;;;;11.52;7.43;;;4.00;99.90;;;;;;4925823;28;86942;-83
2020/12/06 08:00:37;;;;;;;12.10;8.15;;;4.20;99.90;;;;;;4903968;28;90356;-83
2020/12/06 08:03:05;;;;;;;10.15;7.45;;;4.20;99.90;;;;;;4923748;28;86569;-82
2020/12/06 08:05:36;;;;;;;10.85;8.15;;;4.30;99.90;;;;;;4925617;28;86995;-82
2020/12/06 08:08:13;;;;;;;10.27;7.53;;;4.40;99.90;;;;;;4927923;28;87057;-82
2020/12/06 08:10:40;;;;;;;13.80;8.82;;;4.40;99.90;;;;;;4926920;28;87399;-82
2020/12/06 08:13:12;;;;;;;11.52;8.20;;;4.50;99.90;;;;;;4931200;28;86321;-82
2020/12/06 08:15:38;;;;;;;11.95;9.13;;;4.40;99.90;;;;;;4928370;28;87152;-82
2020/12/06 08:18:14;;;;;;;11.98;8.43;;;4.40;99.90;;;;;;4924760;28;87494;-82
2020/12/06 08:20:40;;;;;;;10.77;7.57;;;4.40;99.90;;;;;;4922265;28;87958;-83
2020/12/06 08:23:06;;;;;;;10.63;8.10;;;4.40;99.90;;;;;;4924971;28;87690;-84
2020/12/06 08:25:34;;;;;;;10.48;7.75;;;4.40;99.90;;;;;;4921491;28;86753;-83
2020/12/06 08:28:03;;;;;;;10.63;7.28;;;4.50;99.90;;;;;;4921300;28;87591;-83
2020/12/06 08:30:30;;;;;;;9.25;6.65;;;4.50;99.90;;;;;;4919821;28;87252;-82
2020/12/06 08:32:57;;;;;;;9.95;7.20;;;4.60;99.90;;;;;;4902928;28;90134;-84
2020/12/06 08:35:43;;;;;;;10.70;7.45;;;4.60;99.90;;;;;;4908969;28;87375;-84
2020/12/06 08:38:27;;;;;;;10.30;7.18;;;4.80;99.90;;;;;;4926972;28;86438;-85
2020/12/06 08:41:12;;;;;;;8.63;6.38;;;4.90;99.90;;;;;;4925059;28;87732;-83
2020/12/06 08:43:53;;;;;;;9.00;6.25;;;4.90;99.90;;;;;;4925327;28;87012;-84
2020/12/06 08:46:23;;;;;;;8.27;6.00;;;4.90;99.90;;;;;;4917119;28;88130;-83
2020/12/06 08:48:51;;;;;;;10.65;6.47;;;4.80;99.90;;;;;;4907265;28;86760;-83
2020/12/06 08:51:34;;;;;;;7.50;5.20;;;4.90;99.90;;;;;;4899484;28;88042;-84
2020/12/06 08:54:02;;;;;;;6.88;5.40;;;5.00;99.90;;;;;;4923919;28;87223;-84
2020/12/06 08:56:38;;;;;;;7.10;6.22;;;5.10;99.90;;;;;;4925736;28;88043;-82
2020/12/06 08:59:08;;;;;;;8.00;6.20;;;5.10;99.90;;;;;;4924920;28;87031;-85
2020/12/06 09:01:49;;;;;;;8.52;5.95;;;4.90;99.90;;;;;;4928391;28;87033;-86
2020/12/06 09:04:16;;;;;;;8.43;6.10;;;5.00;99.90;;;;;;4932292;28;87581;-86
2020/12/06 09:06:43;;;;;;;12.30;7.60;;;5.20;99.90;;;;;;4933162;28;87076;-85
2020/12/06 09:09:09;;;;;;;12.25;8.07;;;5.40;99.90;;;;;;4935606;28;86768;-85
2020/12/06 09:11:35;;;;;;;7.78;5.75;;;5.50;99.90;;;;;;4936279;28;87900;-85
2020/12/06 09:14:01;;;;;;;7.18;4.15;;;5.50;99.90;;;;;;4933915;28;89323;-85
2020/12/06 09:16:27;;;;;;;5.70;4.68;;;5.40;99.90;;;;;;4933307;28;88656;-85
2020/12/06 09:18:53;;;;;;;5.07;4.57;;;5.50;99.90;;;;;;4930503;28;87139;-83
2020/12/06 09:21:19;;;;;;;4.85;4.13;;;5.70;99.90;;;;;;4933141;28;87064;-84
2020/12/06 09:23:45;;;;;;;4.75;3.92;;;5.70;99.90;;;;;;4931415;28;86895;-84
2020/12/06 09:26:11;;;;;;;6.07;4.38;;;5.70;99.90;;;;;;4934420;28;87100;-84
2020/12/06 09:28:37;;;;;;;18.13;8.07;;;5.90;99.90;;;;;;4932169;28;87269;-84
2020/12/06 09:31:03;;;;;;;14.88;6.68;;;5.80;99.90;;;;;;4935356;28;87260;-82
2020/12/06 09:33:29;;;;;;;10.35;6.20;;;5.60;99.90;;;;;;4936301;28;87672;-83
2020/12/06 09:35:55;;;;;;;6.90;4.85;;;5.60;99.90;;;;;;4942115;28;87153;-82
2020/12/06 09:38:21;;;;;;;5.10;4.38;;;5.70;99.90;;;;;;4940005;28;86773;-81
2020/12/06 09:40:47;;;;;;;4.40;4.00;;;5.70;99.90;;;;;;4941302;28;88225;-81
2020/12/06 09:43:13;;;;;;;6.30;4.47;;;5.90;99.90;;;;;;4943386;28;86921;-81
2020/12/06 09:45:40;;;;;;;5.47;4.75;;;6.00;99.90;;;;;;4940907;28;86249;-81
2020/12/06 09:48:06;;;;;;;8.68;5.72;;;6.10;99.90;;;;;;4925528;28;87065;-81
2020/12/06 09:50:32;;;;;;;7.00;6.30;;;6.20;99.90;;;;;;4933047;28;87280;-81
2020/12/06 09:52:57;;;;;;;6.28;5.35;;;6.20;99.90;;;;;;4931485;28;86996;-80
2020/12/06 09:55:23;;;;;;;5.60;4.97;;;6.30;99.90;;;;;;4924102;28;86774;-81
2020/12/06 09:57:49;;;;;;;8.23;5.43;;;6.20;99.90;;;;;;4926816;28;86739;-82
2020/12/06 10:00:16;;;;;;;8.70;6.13;;;6.10;99.90;;;;;;4912199;28;88436;-81
2020/12/06 10:02:43;;;;;;;8.43;6.57;;;6.10;99.90;;;;;;4930690;28;88164;-81
2020/12/06 10:05:09;;;;;;;11.70;8.30;;;6.10;99.90;;;;;;4927484;28;87266;-82
2020/12/06 10:07:35;;;;;;;11.48;7.53;;;6.10;99.90;;;;;;4930335;28;86984;-81
2020/12/06 10:10:01;;;;;;;11.38;7.85;;;6.10;99.90;;;;;;4929806;28;87823;-81
2020/12/06 10:12:26;;;;;;;12.27;9.27;;;6.10;99.90;;;;;;4930908;28;87033;-82
2020/12/06 10:14:52;;;;;;;10.55;8.18;;;6.20;99.90;;;;;;4926149;28;86974;-82
2020/12/06 10:17:18;;;;;;;9.75;7.72;;;6.20;99.90;;;;;;4933153;28;85992;-82
2020/12/06 10:19:43;;;;;;;8.23;6.40;;;6.10;99.90;;;;;;4931461;28;87228;-82
2020/12/06 10:22:09;;;;;;;15.27;8.32;;;6.00;99.90;;;;;;4927189;28;88024;-80
2020/12/06 10:24:35;;;;;;;7.43;6.03;;;5.90;99.90;;;;;;4926960;28;88105;-80
2020/12/06 10:27:01;;;;;;;8.32;6.40;;;5.70;99.90;;;;;;4927386;28;87662;-79
2020/12/06 10:29:26;;;;;;;10.80;6.03;;;5.40;99.90;;;;;;4926066;28;87257;-79
2020/12/06 10:31:54;;;;;;;7.85;6.35;;;5.20;99.90;;;;;;4926404;28;86768;-79
2020/12/06 10:34:21;;;;;;;9.35;6.90;;;5.10;99.90;;;;;;4924941;28;86994;-78
2020/12/06 10:36:54;;;;;;;11.15;7.68;;;4.90;99.90;;;;;;4925567;28;88044;-79
2020/12/06 10:39:20;;;;;;;10.80;8.05;;;4.90;99.90;;;;;;4919339;28;87696;-79
2020/12/06 10:41:54;;;;;;;11.10;8.35;;;4.90;99.90;;;;;;4924206;28;88363;-79
2020/12/06 10:44:20;;;;;;;11.00;8.00;;;4.90;99.90;;;;;;4927477;28;86980;-79
2020/12/06 10:46:47;;;;;;;10.38;8.02;;;5.00;99.90;;;;;;4923139;28;86938;-79
2020/12/06 10:49:14;;;;;;;10.35;7.93;;;5.00;99.90;;;;;;4927993;28;88735;-80
2020/12/06 10:51:41;;;;;;;10.38;7.72;;;5.10;99.90;;;;;;4926531;28;87157;-80
2020/12/06 10:54:07;;;;;;;10.82;8.40;;;5.10;99.90;;;;;;4927156;28;86990;-80
2020/12/06 10:56:33;;;;;;;10.05;8.93;;;5.20;99.90;;;;;;4927063;28;86650;-80
2020/12/06 10:58:59;;;;;;;11.85;9.32;;;5.20;99.90;;;;;;4921689;28;87226;-80
2020/12/06 11:01:26;;;;;;;14.13;10.80;;;5.20;99.90;;;;;;4918677;28;88357;-80
2020/12/06 11:03:52;;;;;;;14.13;10.10;;;5.30;99.90;;;;;;4924674;28;87338;-80
2020/12/06 11:06:24;;;;;;;13.93;8.65;;;5.40;99.90;;;;;;4925967;28;86353;-80
2020/12/06 11:08:51;;;;;;;13.00;9.55;;;5.50;99.90;;;;;;4908114;28;88706;-79
2020/12/06 11:11:18;;;;;;;11.95;8.55;;;5.50;99.90;;;;;;4923440;28;87003;-78
2020/12/06 11:13:44;;;;;;;12.55;9.32;;;5.60;99.90;;;;;;4923171;28;87910;-79
2020/12/06 11:16:15;;;;;;;11.23;9.38;;;5.60;99.90;;;;;;4927189;28;87009;-80
2020/12/06 11:18:41;;;;;;;13.45;9.52;;;5.60;99.90;;;;;;4926124;28;87334;-79
2020/12/06 11:21:06;;;;;;;11.75;8.57;;;5.60;99.90;;;;;;4926054;28;87571;-80
2020/12/06 11:23:32;;;;;;;12.32;8.73;;;5.60;99.90;;;;;;4925762;28;86857;-80
2020/12/06 11:25:58;;;;;;;11.57;8.82;;;5.50;99.90;;;;;;4921340;28;87023;-80
2020/12/06 11:28:23;;;;;;;14.23;9.00;;;5.40;99.90;;;;;;4910352;28;88958;-80
2020/12/06 11:30:49;;;;;;;12.45;9.00;;;5.40;99.90;;;;;;4925233;28;87959;-79
2020/12/06 11:33:15;;;;;;;12.23;9.25;;;5.50;99.90;;;;;;4927185;28;86785;-79
2020/12/06 11:35:41;;;;;;;13.15;9.82;;;5.50;99.90;;;;;;4926419;28;86984;-80
2020/12/06 11:38:06;;;;;;;13.45;9.10;;;5.50;99.90;;;;;;4928414;28;87607;-80
2020/12/06 11:40:32;;;;;;;14.48;9.32;;;5.50;99.90;;;;;;4925196;28;88936;-80
2020/12/06 11:42:58;;;;;;;13.27;9.85;;;5.50;99.90;;;;;;4923669;28;87451;-79
2020/12/06 11:45:23;;;;;;;14.00;9.63;;;5.50;99.90;;;;;;4923012;28;87262;-79
2020/12/06 11:47:49;;;;;;;10.20;8.18;;;5.40;99.90;;;;;;4923642;28;86808;-79
2020/12/06 11:50:15;;;;;;;12.50;8.38;;;5.40;99.90;;;;;;4925364;28;86948;-79
2020/12/06 11:52:41;;;;;;;10.75;8.15;;;5.40;99.90;;;;;;4924604;28;87282;-79
2020/12/06 11:55:07;;;;;;;14.02;8.63;;;5.40;99.90;;;;;;4925416;28;85877;-79
2020/12/06 11:57:32;;;;;;;16.35;11.27;;;5.40;99.90;;;;;;4923331;28;87438;-79
2020/12/06 11:59:58;;;;;;;24.33;15.43;;;5.40;99.90;;;;;;4925009;28;86967;-79
2020/12/06 12:02:24;;;;;;;11.48;9.00;;;5.40;99.90;;;;;;4927182;28;87934;-79
2020/12/06 12:04:50;;;;;;;11.45;7.28;;;5.40;99.90;;;;;;4925400;28;87118;-79
2020/12/06 12:07:18;;;;;;;19.67;15.30;;;;;;;;;;4922738;28;87281;-79
2020/12/06 12:09:44;;;;;;;13.95;11.05;;;5.30;99.90;;;;;;4924568;28;87697;-80
2020/12/06 12:12:10;;;;;;;15.77;10.30;;;5.30;99.90;;;;;;4922668;28;86935;-79
2020/12/06 12:14:35;;;;;;;13.20;9.60;;;5.20;99.90;;;;;;4924211;28;86721;-79
2020/12/06 12:17:01;;;;;;;10.00;7.10;;;5.20;99.90;;;;;;4925780;28;87999;-79
2020/12/06 12:19:27;;;;;;;22.73;14.40;;;5.30;99.90;;;;;;4925414;28;87826;-79
2020/12/06 12:21:52;;;;;;;41.33;24.30;;;5.30;99.90;;;;;;4925477;28;86956;-79
2020/12/06 12:24:18;;;;;;;27.50;17.13;;;5.30;99.90;;;;;;4923102;28;86769;-79
2020/12/06 12:26:44;;;;;;;11.88;9.02;;;5.30;99.90;;;;;;4923766;28;88146;-81
2020/12/06 12:29:09;;;;;;;16.50;11.57;;;5.40;99.90;;;;;;4925215;28;87937;-78
2020/12/06 12:31:35;;;;;;;15.35;11.25;;;5.40;99.90;;;;;;4925452;28;86877;-82
2020/12/06 12:34:01;;;;;;;17.75;11.68;;;5.50;99.90;;;;;;4922343;28;88134;-80
2020/12/06 12:36:27;;;;;;;25.63;15.65;;;5.50;99.90;;;;;;4924895;28;87818;-84
2020/12/06 12:38:52;;;;;;;20.45;13.07;;;5.60;99.90;;;;;;4932267;28;87220;-84
2020/12/06 12:41:18;;;;;;;13.80;8.60;;;5.60;99.90;;;;;;4928648;28;87189;-83
2020/12/06 12:43:44;;;;;;;14.88;10.40;;;5.60;99.90;;;;;;4926884;28;86656;-82
2020/12/06 12:46:10;;;;;;;12.30;9.10;;;5.50;99.90;;;;;;4924924;28;87267;-83
2020/12/06 12:48:36;;;;;;;11.40;8.15;;;5.50;99.90;;;;;;4922283;28;87611;-82
2020/12/06 12:51:02;;;;;;;9.82;7.53;;;5.60;99.90;;;;;;4928068;28;87584;-82
2020/12/06 12:53:28;;;;;;;9.75;6.85;;;5.60;99.90;;;;;;4926144;28;87239;-83
2020/12/06 12:55:53;;;;;;;8.00;6.47;;;5.60;99.90;;;;;;4928295;28;86848;-81
2020/12/06 12:58:19;;;;;;;6.80;5.78;;;5.50;99.90;;;;;;4912404;28;87048;-80
2020/12/06 13:00:45;;;;;;;6.55;5.43;;;5.50;99.90;;;;;;4922151;28;87048;-81
2020/12/06 13:03:10;;;;;;;15.20;6.30;;;5.50;99.90;;;;;;4919381;28;87786;-81
2020/12/06 13:05:36;;;;;;;7.03;5.07;;;5.50;99.90;;;;;;4916326;28;87067;-81
2020/12/06 13:08:02;;;;;;;7.72;5.72;;;5.40;99.90;;;;;;4922685;28;86203;-81
2020/12/06 13:10:28;;;;;;;7.03;6.18;;;5.30;99.90;;;;;;4910594;28;87002;-81
2020/12/06 13:12:54;;;;;;;7.97;6.47;;;5.40;99.90;;;;;;4922158;28;87004;-82
2020/12/06 13:15:19;;;;;;;8.73;7.40;;;5.40;99.90;;;;;;4923048;28;88068;-82
2020/12/06 13:17:46;;;;;;;7.72;6.93;;;5.40;99.90;;;;;;4903919;28;89208;-82
2020/12/06 13:20:13;;;;;;;5.93;4.60;;;5.40;99.90;;;;;;4919818;28;86988;-82
2020/12/06 13:22:40;;;;;;;4.95;4.22;;;5.40;99.90;;;;;;4918231;28;87075;-81
2020/12/06 13:25:09;;;;;;;5.55;4.50;;;5.40;99.90;;;;;;4925882;28;86793;-81
2020/12/06 13:27:36;;;;;;;8.10;4.95;;;5.40;99.90;;;;;;4924880;28;87219;-81
2020/12/06 13:30:03;;;;;;;6.72;4.43;;;5.30;99.90;;;;;;4922304;28;86726;-83
2020/12/06 13:32:28;;;;;;;4.80;4.30;;;5.30;99.90;;;;;;4919059;28;85986;-83
2020/12/06 13:34:54;;;;;;;4.72;4.22;;;5.40;99.90;;;;;;4918967;28;86904;-82
2020/12/06 13:37:20;;;;;;;5.03;4.30;;;5.30;99.90;;;;;;4928972;28;87190;-82
2020/12/06 13:39:46;;;;;;;5.47;3.95;;;5.30;99.90;;;;;;4921791;28;88016;-81
2020/12/06 13:42:12;;;;;;;4.90;4.00;;;5.30;99.90;;;;;;4926072;28;86822;-82
2020/12/06 13:44:38;;;;;;;10.45;5.50;;;5.10;99.90;;;;;;4926877;28;86977;-81
2020/12/06 13:47:04;;;;;;;4.55;4.15;;;5.10;99.90;;;;;;4924194;28;87395;-81
2020/12/06 13:49:31;;;;;;;4.28;3.90;;;5.10;99.90;;;;;;4925346;28;86894;-82
2020/12/06 13:51:58;;;;;;;5.05;4.50;;;5.00;99.90;;;;;;4923649;28;87044;-82
2020/12/06 13:54:24;;;;;;;5.40;4.45;;;5.00;99.90;;;;;;4924659;28;87070;-82
2020/12/06 13:56:51;;;;;;;8.43;5.05;;;5.00;99.90;;;;;;4908559;28;86774;-82
2020/12/06 13:59:17;;;;;;;5.97;4.60;;;5.00;99.90;;;;;;4927439;28;86755;-83
2020/12/06 14:01:48;;;;;;;12.55;8.18;;;5.00;99.90;;;;;;4922819;28;87056;-82
2020/12/06 14:04:14;;;;;;;12.00;8.20;;;4.90;99.90;;;;;;4919910;28;88223;-84
2020/12/06 14:06:40;;;;;;;13.35;9.40;;;4.80;99.90;;;;;;4921373;28;87058;-82
2020/12/06 14:09:06;;;;;;;11.57;8.55;;;4.70;99.90;;;;;;4925106;28;86393;-83
2020/12/06 14:11:32;;;;;;;11.57;7.85;;;4.60;99.90;;;;;;4923885;28;87114;-83
2020/12/06 14:13:59;;;;;;;16.30;10.60;;;4.50;99.90;;;;;;4924911;28;87214;-83
2020/12/06 14:16:25;;;;;;;20.08;11.35;;;4.40;99.90;;;;;;4927178;28;87550;-85
2020/12/06 14:18:50;;;;;;;14.93;10.10;;;4.30;99.90;;;;;;4932189;28;86997;-83
2020/12/06 14:21:20;;;;;;;14.15;9.98;;;4.20;99.90;;;;;;4925234;28;86371;-83
2020/12/06 14:23:47;;;;;;;12.85;9.88;;;4.00;99.90;;;;;;4924456;28;87108;-83
2020/12/06 14:26:14;;;;;;;15.10;10.65;;;4.00;99.90;;;;;;4926405;28;87292;-82
2020/12/06 14:28:40;;;;;;;11.05;8.70;;;4.00;99.90;;;;;;4926881;28;87794;-83
2020/12/06 14:31:09;;;;;;;10.13;8.43;;;4.00;99.90;;;;;;4901725;28;87419;-83
2020/12/06 14:33:35;;;;;;;12.75;8.90;;;3.90;99.90;;;;;;4919549;28;86940;-83
2020/12/06 14:36:00;;;;;;;11.15;8.95;;;3.90;99.90;;;;;;4924525;28;87393;-83
2020/12/06 14:38:26;;;;;;;11.73;9.63;;;3.90;99.90;;;;;;4923512;28;88342;-84
2020/12/06 14:40:52;;;;;;;13.27;8.98;;;3.90;99.90;;;;;;4910112;28;86912;-82
2020/12/06 14:43:18;;;;;;;11.88;8.85;;;3.90;99.90;;;;;;4926035;28;87066;-82
2020/12/06 14:45:43;;;;;;;12.15;8.57;;;4.00;99.90;;;;;;4928191;28;86983;-82
2020/12/06 14:48:09;;;;;;;14.75;9.18;;;4.00;99.90;;;;;;4928095;28;87061;-82
2020/12/06 14:50:35;;;;;;;14.15;8.18;;;4.00;99.90;;;;;;4927314;28;87044;-82
2020/12/06 14:53:01;;;;;;;13.07;8.95;;;4.00;99.90;;;;;;4926546;28;88333;-82
2020/12/06 14:55:27;;;;;;;13.63;9.48;;;4.00;99.90;;;;;;4927335;28;89216;-82
2020/12/06 14:57:54;;;;;;;11.55;9.00;;;4.00;99.90;;;;;;4926120;28;86716;-83
2020/12/06 15:00:21;;;;;;;12.40;8.85;;;4.00;99.90;;;;;;4927878;28;86890;-84
2020/12/06 15:02:46;;;;;;;13.52;9.93;;;4.10;99.90;;;;;;4912061;28;87013;-83
2020/12/06 15:05:12;;;;;;;15.18;10.55;;;4.00;99.90;;;;;;4888441;28;88327;-84
2020/12/06 15:07:38;;;;;;;15.50;9.93;;;4.00;99.90;;;;;;4909851;28;86978;-83
2020/12/06 15:10:04;;;;;;;13.45;8.48;;;4.10;99.90;;;;;;4909000;28;86166;-83
2020/12/06 15:12:30;;;;;;;10.63;8.35;;;4.10;99.90;;;;;;4907287;28;87253;-83
2020/12/06 15:14:55;;;;;;;25.45;12.25;;;4.00;99.90;;;;;;4907620;28;87512;-84
2020/12/06 15:17:21;;;;;;;17.90;10.68;;;4.00;99.90;;;;;;4918434;28;87933;-84
2020/12/06 15:19:47;;;;;;;17.95;10.32;;;4.00;99.90;;;;;;4913234;28;86596;-84
2020/12/06 15:22:13;;;;;;;19.17;10.32;;;4.00;99.90;;;;;;4910003;28;87243;-84
2020/12/06 15:24:38;;;;;;;16.17;9.40;;;4.00;99.90;;;;;;4910482;28;87069;-84
2020/12/06 15:27:04;;;;;;;14.65;8.45;;;4.00;99.90;;;;;;4910753;28;86766;-84
2020/12/06 15:29:30;;;;;;;12.63;8.25;;;4.00;99.90;;;;;;4911954;28;86891;-84
2020/12/06 15:31:55;;;;;;;12.95;7.65;;;4.00;99.90;;;;;;4914386;28;86882;-84
2020/12/06 15:34:21;;;;;;;20.13;9.45;;;4.00;99.90;;;;;;4911091;28;87478;-84
2020/12/06 15:36:47;;;;;;;16.33;8.60;;;4.00;99.90;;;;;;4906296;28;87004;-84
2020/12/06 15:39:13;;;;;;;13.00;8.25;;;3.90;99.90;;;;;;4910183;28;86296;-84
2020/12/06 15:41:39;;;;;;;11.85;8.05;;;3.90;99.90;;;;;;4906479;28;87948;-84
2020/12/06 15:44:05;;;;;;;12.15;9.00;;;3.90;99.90;;;;;;4912058;28;88808;-84
2020/12/06 15:46:31;;;;;;;16.42;10.18;;;3.90;99.90;;;;;;4923911;28;86956;-84
2020/12/06 15:48:57;;;;;;;10.75;8.02;;;3.90;99.90;;;;;;4910327;28;87098;-84
2020/12/06 15:51:23;;;;;;;12.07;8.18;;;3.80;99.90;;;;;;4910414;28;87118;-84
2020/12/06 15:53:49;;;;;;;10.57;8.15;;;3.80;99.90;;;;;;4912820;28;87122;-84
2020/12/06 15:56:20;;;;;;;13.82;7.85;;;3.80;99.90;;;;;;4917897;28;86849;-85
2020/12/06 15:58:46;;;;;;;;;;;3.70;99.90;;;;;;4907827;28;85512;-84
2020/12/06 16:01:13;;;;;;;13.45;8.75;;;3.50;99.90;;;;;;4906283;28;87828;-84
2020/12/06 16:03:39;;;;;;;12.75;7.97;;;3.50;99.90;;;;;;4897021;28;87063;-84
2020/12/06 16:06:15;;;;;;;14.15;7.95;;;3.60;99.90;;;;;;4904441;28;87902;-84
2020/12/06 16:08:40;;;;;;;11.65;6.65;;;3.60;99.90;;;;;;4898990;28;87031;-84
2020/12/06 16:11:11;;;;;;;8.35;6.90;;;3.60;99.90;;;;;;4906754;28;87284;-84
2020/12/06 16:13:37;;;;;;;9.40;7.10;;;3.70;99.90;;;;;;4903989;28;86898;-84
2020/12/06 16:16:10;;;;;;;9.35;6.13;;;3.70;99.90;;;;;;4897790;28;87029;-84
2020/12/06 16:18:36;;;;;;;9.98;7.35;;;3.60;99.90;;;;;;4905870;28;88223;-83
2020/12/06 16:21:03;;;;;;;11.27;6.82;;;3.60;99.90;;;;;;4908535;28;87783;-84
2020/12/06 16:23:29;;;;;;;7.70;6.55;;;3.50;99.90;;;;;;4907289;28;85922;-84
2020/12/06 16:25:56;;;;;;;11.98;7.07;;;3.50;99.90;;;;;;4907692;28;87053;-84
2020/12/06 16:28:22;;;;;;;12.75;8.55;;;3.50;99.90;;;;;;4907181;28;86738;-84
2020/12/06 16:30:48;;;;;;;10.05;7.55;;;3.50;99.90;;;;;;4901264;28;88704;-82
2020/12/06 16:33:14;;;;;;;15.98;8.05;;;3.50;99.90;;;;;;4906589;28;87183;-82
2020/12/06 16:35:40;;;;;;;9.30;6.68;;;3.50;99.90;;;;;;4902009;28;88044;-83
2020/12/06 16:38:06;;;;;;;11.13;7.50;;;3.60;99.90;;;;;;4906110;28;87119;-82
2020/12/06 16:40:33;;;;;;;13.90;8.02;;;3.60;99.90;;;;;;4906190;28;87128;-83
2020/12/06 16:42:58;;;;;;;15.93;8.82;;;3.60;99.90;;;;;;4904881;28;87020;-82
2020/12/06 16:45:25;;;;;;;14.10;8.90;;;3.60;99.90;;;;;;4907831;28;87071;-83
2020/12/06 16:47:50;;;;;;;13.30;8.07;;;3.50;99.90;;;;;;4889236;28;87934;-83
2020/12/06 16:50:19;;;;;;;12.60;8.38;;;3.50;99.90;;;;;;4903014;28;87779;-83
2020/12/06 16:52:46;;;;;;;11.93;8.02;;;3.50;99.90;;;;;;4903379;28;87015;-83
2020/12/06 16:55:12;;;;;;;14.27;7.22;;;3.50;99.90;;;;;;4906411;28;87956;-84
2020/12/06 16:57:38;;;;;;;13.50;7.90;;;3.40;99.90;;;;;;4909033;28;86459;-83
2020/12/06 17:00:07;;;;;;;8.82;7.10;;;3.40;99.90;;;;;;4897968;28;87063;-83
2020/12/06 17:02:34;;;;;;;15.10;8.07;;;3.40;99.90;;;;;;4917248;28;86923;-83
2020/12/06 17:05:00;;;;;;;15.60;8.68;;;3.50;99.90;;;;;;4923503;28;86745;-83
2020/12/06 17:07:25;;;;;;;17.00;8.95;;;3.50;99.90;;;;;;4922483;28;86848;-83
2020/12/06 17:09:51;;;;;;;16.73;8.20;;;3.50;99.90;;;;;;4923792;28;88313;-83
2020/12/06 17:12:17;;;;;;;12.23;7.15;;;3.40;99.90;;;;;;4921772;28;86352;-82
2020/12/06 17:14:45;;;;;;;9.35;7.05;;;3.40;99.90;;;;;;4927006;28;87032;-82
2020/12/06 17:17:14;;;;;;;13.88;7.93;;;3.30;99.90;;;;;;4925998;28;86948;-82
2020/12/06 17:19:40;;;;;;;13.07;7.47;;;3.30;99.90;;;;;;4924678;28;87658;-83
2020/12/06 17:22:09;;;;;;;9.13;7.07;;;3.40;99.90;;;;;;4921351;28;87168;-83
2020/12/06 17:24:38;;;;;;;9.20;6.55;;;3.30;99.90;;;;;;4929032;28;86256;-83
2020/12/06 17:27:07;;;;;;;11.77;7.95;;;3.30;99.90;;;;;;4925897;28;86972;-82
2020/12/06 17:29:34;;;;;;;13.70;6.15;;;3.20;99.90;;;;;;4929562;28;88614;-82
2020/12/06 17:32:00;;;;;;;8.43;6.65;;;3.20;99.90;;;;;;4926933;28;87214;-81
2020/12/06 17:34:25;;;;;;;10.05;6.50;;;3.30;99.90;;;;;;4928067;28;86960;-82
2020/12/06 17:36:51;;;;;;;11.10;7.70;;;3.20;99.90;;;;;;4931110;28;86423;-82
2020/12/06 17:39:17;;;;;;;9.77;6.95;;;3.30;99.90;;;;;;4925335;28;87238;-81
2020/12/06 17:41:42;;;;;;;9.25;7.15;;;3.30;99.90;;;;;;4910332;28;89597;-81
2020/12/06 17:44:08;;;;;;;11.02;7.05;;;3.20;99.90;;;;;;4929667;28;87496;-81
2020/12/06 17:46:34;;;;;;;9.60;7.10;;;3.10;99.90;;;;;;4931355;28;86980;-82
2020/12/06 17:49:00;;;;;;;13.95;8.73;;;3.10;99.90;;;;;;4929997;28;87324;-82